Time;durP1;ratioP1;P1;durP2;ratioP2;P2;SDS_P1;SDS_P2;PMS_P1;PMS_P2;Temp;Humidity;BMP_temperature;BMP_pressure;BME280_temperature;BME280_humidity;BME280_pressure;Samples;Min_cycle;Max_cycle;Signal;HPM_P1;HPM_P2
2023/08/02 00:01:03;;;;;;;7.63;4.00;;;;;;;20.76;83.97;92513.72;5065355;28;20056;-73
2023/08/02 00:03:30;;;;;;;7.03;4.18;;;;;;;20.86;83.52;92530.25;5060899;28;20041;-73
2023/08/02 00:05:58;;;;;;;5.68;3.53;;;;;;;20.87;86.36;92521.38;5066219;28;20048;-73
2023/08/02 00:08:27;;;;;;;5.03;3.78;;;;;;;20.89;82.79;92525.25;5061444;28;20053;-73
2023/08/02 00:10:53;;;;;;;6.50;3.83;;;;;;;20.73;83.35;92495.25;5063211;28;20049;-73
2023/08/02 00:13:20;;;;;;;6.18;4.55;;;;;;;20.92;85.77;92521.28;5065429;28;20701;-73
2023/08/02 00:15:47;;;;;;;4.93;3.92;;;;;;;20.96;83.91;92528.25;5064274;28;20091;-73
2023/08/02 00:18:14;;;;;;;6.15;4.18;;;;;;;21.01;84.93;92535.19;5065792;28;20052;-73
2023/08/02 00:20:41;;;;;;;5.90;3.78;;;;;;;21.06;84.12;92531.72;5064821;28;20063;-73
2023/08/02 00:23:08;;;;;;;7.63;4.30;;;;;;;20.99;82.83;92513.81;5062582;28;20040;-74
2023/08/02 00:25:36;;;;;;;5.72;4.38;;;;;;;21.12;83.98;92527.94;5064034;28;20143;-73
2023/08/02 00:28:03;;;;;;;8.25;3.78;;;;;;;21.13;83.20;92523.47;5064917;28;20531;-73
2023/08/02 00:30:31;;;;;;;6.03;4.10;;;;;;;21.17;83.88;92538.28;5063711;28;20122;-73
2023/08/02 00:32:58;;;;;;;6.57;4.75;;;;;;;21.21;83.71;92539.22;5063458;28;20070;-72
2023/08/02 00:35:25;;;;;;;6.20;4.05;;;;;;;21.16;83.09;92528.88;5065791;28;20557;-73
2023/08/02 00:37:52;;;;;;;5.80;4.43;;;;;;;21.08;83.79;92516.53;5067251;28;20045;-73
2023/08/02 00:40:19;;;;;;;5.60;4.10;;;;;;;21.22;83.88;92524.34;5064721;28;20826;-73
2023/08/02 00:42:47;;;;;;;5.03;3.97;;;;;;;21.24;83.84;92535.25;5070355;28;20041;-72
2023/08/02 00:45:13;;;;;;;7.88;4.70;;;;;;;21.14;84.75;92520.56;5065933;28;20105;-73
2023/08/02 00:47:40;;;;;;;6.03;3.92;;;;;;;21.28;83.81;92525.78;5063864;28;20052;-73
2023/08/02 00:50:08;;;;;;;5.93;4.20;;;;;;;21.24;84.28;92527.41;5068302;28;20040;-72
2023/08/02 00:52:35;;;;;;;6.88;4.68;;;;;;;21.31;85.43;92521.81;5068424;28;20409;-73
2023/08/02 00:55:01;;;;;;;6.22;4.35;;;;;;;21.17;86.49;92519.22;5068384;28;20044;-73
2023/08/02 00:57:28;;;;;;;6.13;4.32;;;;;;;21.16;85.64;92522.91;5064707;28;20053;-72
2023/08/02 00:59:56;;;;;;;6.10;3.97;;;;;;;21.21;85.72;92531.38;5067772;28;20060;-73
2023/08/02 01:02:23;;;;;;;7.88;4.50;;;;;;;21.18;86.96;92524.16;5068189;28;20371;-74
2023/08/02 01:04:50;;;;;;;4.93;3.85;;;;;;;21.19;86.79;92524.91;5066313;28;20044;-73
2023/08/02 01:07:24;;;;;;;11.60;4.93;;;;;;;21.17;87.82;92522.63;5066564;28;20491;-73
2023/08/02 01:09:55;;;;;;;20.65;4.97;;;;;;;21.17;86.68;92521.84;5066962;28;20094;-73
2023/08/02 01:12:25;;;;;;;6.90;4.68;;;;;;;21.07;89.37;92518.34;5066930;28;20498;-74
2023/08/02 01:14:56;;;;;;;8.25;5.13;;;;;;;21.12;87.20;92524.53;5069104;28;20664;-73
2023/08/02 01:17:25;;;;;;;7.95;5.35;;;;;;;21.11;89.18;92529.00;5067384;28;20090;-73
2023/08/02 01:19:52;;;;;;;7.68;4.32;;;;;;;21.13;91.16;92528.69;5068805;28;20098;-74
2023/08/02 01:22:21;;;;;;;7.07;4.68;;;;;;;21.01;92.74;92511.69;5068272;28;20111;-74
2023/08/02 01:24:52;;;;;;;6.75;4.72;;;;;;;21.03;95.24;92524.47;5069462;28;20065;-74
2023/08/02 01:27:24;;;;;;;6.97;4.35;;;;;;;21.06;93.61;92529.88;5069313;28;20045;-74
2023/08/02 01:29:53;;;;;;;8.95;5.03;;;;;;;21.05;93.96;92533.53;5068208;28;20049;-74
2023/08/02 01:32:21;;;;;;;7.18;4.68;;;;;;;21.06;92.65;92526.50;5066976;28;20564;-74
2023/08/02 01:34:49;;;;;;;8.63;5.40;;;;;;;21.11;93.31;92518.56;5067573;28;21001;-74
2023/08/02 01:37:16;;;;;;;8.63;4.95;;;;;;;21.10;92.39;92522.22;5069382;28;20048;-74
2023/08/02 01:39:44;;;;;;;6.95;4.53;;;;;;;21.13;93.75;92518.25;5065415;28;20098;-74
2023/08/02 01:42:11;;;;;;;8.77;5.03;;;;;;;21.10;92.51;92514.38;5068676;28;20094;-74
2023/08/02 01:44:38;;;;;;;7.78;5.47;;;;;;;21.08;94.40;92517.31;5065800;28;20606;-74
2023/08/02 01:47:05;;;;;;;8.20;5.40;;;;;;;21.07;94.29;92512.38;5066957;28;20045;-74
2023/08/02 01:49:32;;;;;;;8.43;5.60;;;;;;;21.07;95.60;92515.75;5069186;28;20508;-74
2023/08/02 01:51:58;;;;;;;7.95;5.13;;;;;;;20.98;95.36;92499.22;5067917;28;20105;-74
2023/08/02 01:54:25;;;;;;;8.65;6.30;;;;;;;21.05;95.94;92512.66;5067482;28;20190;-74
2023/08/02 01:56:53;;;;;;;9.48;5.90;;;;;;;21.06;99.49;92508.22;5064920;28;20976;-74
2023/08/02 01:59:20;;;;;;;7.53;5.78;;;;;;;21.01;95.41;92513.53;5068777;28;20052;-74
2023/08/02 02:01:47;;;;;;;7.95;5.57;;;;;;;21.04;97.75;92518.16;5067309;28;20857;-74
2023/08/02 02:04:13;;;;;;;9.73;5.75;;;;;;;21.03;99.78;92514.81;5068281;28;20102;-74
2023/08/02 02:06:40;;;;;;;10.63;6.15;;;;;;;21.04;98.55;92518.16;5061331;28;20610;-72
2023/08/02 02:09:07;;;;;;;28.63;6.68;;;;;;;21.06;98.34;92510.84;5064728;28;20048;-73
2023/08/02 02:11:33;;;;;;;8.27;5.18;;;;;;;21.05;98.37;92517.09;5068593;28;20053;-73
2023/08/02 02:14:02;;;;;;;13.65;5.88;;;;;;;21.05;99.00;92523.09;5067036;28;20438;-73
2023/08/02 02:16:29;;;;;;;8.70;6.30;;;;;;;21.06;99.67;92519.41;5065947;28;20067;-72
2023/08/02 02:18:56;;;;;;;8.27;5.40;;;;;;;21.05;99.36;92519.72;5067826;28;20116;-74
2023/08/02 02:21:22;;;;;;;10.75;5.82;;;;;;;21.02;99.34;92518.44;5064958;28;20105;-72
2023/08/02 02:23:49;;;;;;;8.25;5.72;;;;;;;21.07;98.11;92514.97;5067570;28;20873;-72
2023/08/02 02:26:16;;;;;;;8.88;5.20;;;;;;;21.06;99.38;92524.66;5067817;28;20098;-72
2023/08/02 02:28:42;;;;;;;7.68;5.57;;;;;;;20.99;99.62;92508.59;5066195;28;20812;-72
2023/08/02 02:31:11;;;;;;;9.13;5.93;;;;;;;21.08;98.77;92521.75;5065655;28;20041;-72
2023/08/02 02:33:37;;;;;;;8.43;5.65;;;;;;;21.04;97.51;92518.94;5065192;28;20052;-72
2023/08/02 02:36:06;;;;;;;7.10;5.25;;;;;;;21.04;97.57;92520.78;5068334;28;20048;-72
2023/08/02 02:38:32;;;;;;;7.15;5.10;;;;;;;20.98;98.42;92524.56;5062816;28;20067;-71
2023/08/02 02:40:59;;;;;;;7.00;5.05;;;;;;;21.03;98.13;92535.69;5066698;28;20060;-71
2023/08/02 02:43:26;;;;;;;28.20;7.93;;;;;;;21.00;98.14;92531.03;5062646;28;20041;-72
2023/08/02 02:45:52;;;;;;;6.13;4.80;;;;;;;20.88;98.17;92504.66;5068116;28;20118;-71
2023/08/02 02:48:21;;;;;;;6.93;5.28;;;;;;;20.95;97.66;92533.75;5067249;28;20547;-71
2023/08/02 02:50:47;;;;;;;8.40;5.15;;;;;;;20.97;98.04;92536.84;5064682;28;20490;-71
2023/08/02 02:53:16;;;;;;;10.75;5.80;;;;;;;21.08;98.15;92551.25;5065503;28;20049;-72
2023/08/02 02:55:43;;;;;;;15.68;5.82;;;;;;;20.87;98.79;92537.03;5067683;28;20118;-73
2023/08/02 02:58:09;;;;;;;7.53;6.22;;;;;;;21.04;97.07;92550.28;5060571;28;20044;-72
2023/08/02 03:00:36;;;;;;;15.93;5.82;;;;;;;21.02;96.89;92547.16;5066537;28;20387;-72
2023/08/02 03:03:03;;;;;;;7.38;5.28;;;;;;;21.03;97.17;92540.91;5064400;28;20102;-72
2023/08/02 03:05:31;;;;;;;7.25;4.85;;;;;;;21.07;96.09;92552.28;5065061;28;20097;-72
2023/08/02 03:07:57;;;;;;;9.32;5.07;;;;;;;21.10;95.85;92548.31;5066979;28;20499;-72
2023/08/02 03:10:25;;;;;;;9.15;5.32;;;;;;;21.13;96.40;92545.16;5065491;28;20105;-72
2023/08/02 03:12:51;;;;;;;8.65;5.53;;;;;;;21.13;96.92;92539.13;5063105;28;20052;-72
2023/08/02 03:15:18;;;;;;;9.93;4.95;;;;;;;21.06;96.98;92545.53;5066635;28;20098;-72
2023/08/02 03:17:45;;;;;;;8.73;4.93;;;;;;;21.00;97.49;92543.31;5065959;28;20040;-72
2023/08/02 03:20:11;;;;;;;6.80;5.38;;;;;;;20.93;97.61;92547.06;5065532;28;20056;-72
2023/08/02 03:22:39;;;;;;;7.13;4.97;;;;;;;20.87;98.27;92548.25;5063266;28;20064;-73
2023/08/02 03:25:07;;;;;;;6.95;4.88;;;;;;;20.55;98.28;92526.38;5064093;28;20101;-72
2023/08/02 03:27:52;;;;;;;6.88;5.28;;;;;;;20.69;97.88;92553.25;5066008;28;20090;-72
2023/08/02 03:30:18;;;;;;;6.65;4.97;;;;;;;20.63;98.81;92546.56;5067386;28;20126;-72
2023/08/02 03:32:45;;;;;;;7.25;4.90;;;;;;;20.64;99.08;92557.78;5066800;28;20114;-72
2023/08/02 03:35:12;;;;;;;9.63;5.25;;;;;;;20.63;99.56;92564.03;5065549;28;20093;-72
2023/08/02 03:37:40;;;;;;;9.93;5.43;;;;;;;20.64;98.34;92557.78;5066384;28;20048;-72
2023/08/02 03:40:08;;;;;;;6.80;5.05;;;;;;;20.67;97.28;92565.03;5065455;28;20126;-72
2023/08/02 03:42:34;;;;;;;7.45;4.95;;;;;;;20.68;96.61;92561.34;5065952;28;20052;-72
2023/08/02 03:45:03;;;;;;;8.63;5.63;;;;;;;20.74;97.48;92560.19;5063088;28;20071;-72
2023/08/02 03:47:29;;;;;;;7.68;5.65;;;;;;;20.76;97.69;92559.91;5064134;28;20098;-72
2023/08/02 03:49:56;;;;;;;8.68;5.32;;;;;;;20.83;98.42;92566.28;5064477;28;20040;-73
2023/08/02 03:52:23;;;;;;;11.40;5.75;;;;;;;20.78;100.00;92550.72;5065988;28;20049;-72
2023/08/02 03:54:51;;;;;;;7.90;5.63;;;;;;;20.81;98.33;92549.38;5064402;28;20044;-72
2023/08/02 03:57:18;;;;;;;7.57;5.20;;;;;;;20.98;98.31;92572.34;5062999;28;20095;-72
2023/08/02 03:59:45;;;;;;;10.35;6.05;;;;;;;21.04;96.44;92565.16;5062502;28;20090;-72
2023/08/02 04:02:11;;;;;;;7.43;5.53;;;;;;;21.09;96.78;92565.06;5066370;28;20049;-72
2023/08/02 04:04:38;;;;;;;8.70;5.25;;;;;;;21.09;97.27;92565.06;5062287;28;20078;-72
2023/08/02 04:07:05;;;;;;;7.78;5.35;;;;;;;21.03;97.14;92561.78;5062930;28;20685;-72
2023/08/02 04:09:33;;;;;;;8.35;5.97;;;;;;;21.11;97.05;92570.78;5060225;28;20110;-72
2023/08/02 04:12:01;;;;;;;7.57;5.65;;;;;;;21.13;98.20;92566.03;5060079;28;20052;-72
2023/08/02 04:14:27;;;;;;;8.52;5.78;;;;;;;21.15;98.37;92570.97;5062635;28;20045;-72
2023/08/02 04:16:54;;;;;;;7.97;5.57;;;;;;;21.23;97.90;92571.06;5059662;28;20052;-73
2023/08/02 04:19:21;;;;;;;8.80;5.85;;;;;;;21.31;98.10;92561.78;5060256;28;20052;-72
2023/08/02 04:21:48;;;;;;;8.23;5.60;;;;;;;21.20;96.68;92532.47;5059753;28;20056;-72
2023/08/02 04:24:15;;;;;;;10.77;5.40;;;;;;;21.45;96.68;92564.38;5062107;28;20048;-72
2023/08/02 04:26:42;;;;;;;8.63;6.10;;;;;;;21.48;95.22;92570.84;5060603;28;20060;-72
2023/08/02 04:29:10;;;;;;;7.85;5.47;;;;;;;21.57;95.49;92560.47;5063198;28;20056;-72
2023/08/02 04:31:36;;;;;;;8.18;5.25;;;;;;;21.63;96.01;92562.66;5063138;28;20094;-72
2023/08/02 04:34:05;;;;;;;9.82;7.18;;;;;;;21.67;96.42;92562.06;5061469;28;20040;-72
2023/08/02 04:36:32;;;;;;;9.57;5.95;;;;;;;21.72;95.67;92569.84;5063638;28;20045;-72
2023/08/02 04:39:02;;;;;;;8.35;6.55;;;;;;;21.74;96.04;92571.09;5064511;28;20631;-72
2023/08/02 04:41:28;;;;;;;9.75;7.30;;;;;;;21.76;96.11;92566.34;5064781;28;20049;-72
2023/08/02 04:43:55;;;;;;;14.70;7.60;;;;;;;21.79;96.25;92570.19;5064918;28;20045;-72
2023/08/02 04:46:27;;;;;;;20.40;9.02;;;;;;;21.46;96.88;92570.34;5062763;28;20048;-72
2023/08/02 04:48:54;;;;;;;18.65;8.60;;;;;;;21.44;95.31;92573.25;5065226;28;20093;-72
2023/08/02 04:51:20;;;;;;;22.38;8.85;;;;;;;21.51;95.58;92585.16;5062261;28;20046;-72
2023/08/02 04:53:48;;;;;;;17.10;7.78;;;;;;;21.55;95.60;92589.50;5063592;28;20104;-72
2023/08/02 04:56:15;;;;;;;18.83;8.73;;;;;;;21.63;95.07;92588.03;5063153;28;20051;-72
2023/08/02 04:58:42;;;;;;;20.88;8.25;;;;;;;21.72;96.63;92583.66;5061790;28;20094;-72
2023/08/02 05:01:09;;;;;;;14.07;7.18;;;;;;;21.81;95.09;92581.16;5063446;28;20506;-72
2023/08/02 05:03:37;;;;;;;13.68;6.80;;;;;;;21.82;95.61;92567.00;5063109;28;20048;-72
2023/08/02 05:06:05;;;;;;;10.93;7.00;;;;;;;22.02;94.24;92576.22;5062505;28;20051;-72
2023/08/02 05:08:35;;;;;;;11.48;6.78;;;;;;;22.13;94.74;92574.13;5065477;28;20399;-72
2023/08/02 05:11:05;;;;;;;11.40;7.13;;;;;;;22.24;94.31;92574.69;5063264;28;20457;-72
2023/08/02 05:13:31;;;;;;;8.73;6.68;;;;;;;22.37;94.86;92578.31;5064202;28;20048;-72
2023/08/02 05:15:58;;;;;;;9.88;6.22;;;;;;;22.47;93.44;92582.50;5064603;28;20453;-72
2023/08/02 05:18:25;;;;;;;15.90;6.13;;;;;;;22.58;94.94;92583.03;5064057;28;20040;-72
2023/08/02 05:20:53;;;;;;;11.55;6.45;;;;;;;22.70;91.81;92585.13;5064560;28;20049;-73
2023/08/02 05:23:20;;;;;;;10.38;5.85;;;;;;;22.79;92.20;92582.53;5069319;28;20102;-72
2023/08/02 05:25:47;;;;;;;10.52;6.50;;;;;;;22.87;92.62;92584.41;5065191;28;20348;-72
2023/08/02 05:28:13;;;;;;;13.85;7.38;;;;;;;22.97;91.29;92583.38;5068238;28;20074;-72
2023/08/02 05:30:40;;;;;;;12.57;6.32;;;;;;;23.08;90.74;92581.25;5066297;28;20052;-72
2023/08/02 05:33:07;;;;;;;11.73;6.18;;;;;;;23.16;90.45;92580.53;5068158;28;20399;-72
2023/08/02 05:35:34;;;;;;;13.60;6.18;;;;;;;23.23;89.92;92588.69;5067552;28;20553;-72
2023/08/02 05:38:02;;;;;;;8.77;5.97;;;;;;;23.31;89.75;92595.06;5066359;28;20052;-72
2023/08/02 05:40:29;;;;;;;8.77;6.15;;;;;;;23.34;88.80;92596.31;5067283;28;20060;-72
2023/08/02 05:42:56;;;;;;;8.32;6.32;;;;;;;23.36;90.05;92599.38;5064232;28;20045;-73
2023/08/02 05:45:22;;;;;;;11.32;6.25;;;;;;;23.43;91.39;92597.13;5063501;28;20456;-73
2023/08/02 05:47:50;;;;;;;11.27;6.38;;;;;;;23.44;90.22;92601.28;5065082;28;20052;-72
2023/08/02 05:50:17;;;;;;;15.57;6.55;;;;;;;23.43;91.09;92602.34;5065795;28;20166;-72
2023/08/02 05:52:44;;;;;;;9.57;5.82;;;;;;;23.54;90.88;92609.91;5053201;28;20052;-72
2023/08/02 05:55:12;;;;;;;10.80;6.47;;;;;;;23.58;91.19;92614.25;5058596;28;20449;-73
2023/08/02 05:57:39;;;;;;;11.80;6.53;;;;;;;23.61;89.46;92624.13;5063516;28;20048;-73
2023/08/02 06:00:08;;;;;;;16.45;7.10;;;;;;;23.67;90.02;92611.66;5065773;28;20571;-73
2023/08/02 06:02:35;;;;;;;11.32;6.75;;;;;;;23.75;90.27;92615.34;5063076;28;20048;-73
2023/08/02 06:05:02;;;;;;;9.85;6.13;;;;;;;23.82;88.95;92614.88;5068492;28;20048;-73
2023/08/02 06:07:28;;;;;;;11.10;6.22;;;;;;;23.87;89.13;92619.97;5065177;28;20048;-72
2023/08/02 06:09:55;;;;;;;8.73;5.60;;;;;;;23.91;87.92;92620.91;5065610;28;20044;-73
2023/08/02 06:12:23;;;;;;;10.88;6.88;;;;;;;24.01;87.40;92619.84;5065227;28;20049;-72
2023/08/02 06:14:50;;;;;;;8.60;6.00;;;;;;;24.11;87.92;92619.56;5066737;28;20102;-72
2023/08/02 06:17:17;;;;;;;14.32;6.50;;;;;;;24.17;86.55;92617.56;5060750;28;20048;-72
2023/08/02 06:19:44;;;;;;;13.30;6.13;;;;;;;24.28;86.83;92620.63;5065360;28;20443;-72
2023/08/02 06:22:11;;;;;;;9.07;5.88;;;;;;;24.29;87.38;92619.53;5064799;28;20053;-73
2023/08/02 06:24:42;;;;;;;9.35;6.10;;;;;;;24.32;85.40;92616.31;5068437;28;20056;-72
2023/08/02 06:27:09;;;;;;;12.45;5.68;;;;;;;24.39;85.58;92615.84;5062845;28;20422;-72
2023/08/02 06:29:37;;;;;;;8.15;5.82;;;;;;;24.50;86.42;92619.69;5061779;28;20048;-72
2023/08/02 06:32:04;;;;;;;10.75;5.85;;;;;;;24.60;85.07;92617.81;5067326;28;20560;-72
2023/08/02 06:34:30;;;;;;;9.40;6.20;;;;;;;24.51;84.96;92610.72;5066505;28;20102;-72
2023/08/02 06:36:57;;;;;;;8.02;5.30;;;;;;;24.61;85.08;92607.00;5065696;28;20036;-72
2023/08/02 06:39:24;;;;;;;9.68;6.70;;;;;;;24.69;84.91;92615.94;5066057;28;20109;-72
2023/08/02 06:41:50;;;;;;;10.23;5.95;;;;;;;24.73;85.62;92606.34;5064297;28;20110;-72
2023/08/02 06:44:18;;;;;;;8.98;6.18;;;;;;;24.82;84.86;92611.63;5065891;28;20498;-72
2023/08/02 06:46:46;;;;;;;8.43;6.55;;;;;;;24.90;83.97;92617.94;5064205;28;20086;-72
2023/08/02 06:49:12;;;;;;;8.20;6.40;;;;;;;25.00;83.53;92604.44;5064775;28;20052;-73
2023/08/02 06:51:39;;;;;;;7.10;5.80;;;;;;;25.13;83.13;92613.19;5064348;28;20044;-73
2023/08/02 06:54:06;;;;;;;8.00;6.07;;;;;;;25.31;83.50;92613.09;5064729;28;20044;-72
2023/08/02 06:56:33;;;;;;;10.15;6.32;;;;;;;25.46;83.41;92615.19;5062501;28;20044;-72
2023/08/02 06:58:59;;;;;;;9.80;6.20;;;;;;;25.64;82.49;92614.38;5063178;28;20052;-72
2023/08/02 07:01:26;;;;;;;9.27;6.35;;;;;;;25.71;80.41;92614.63;5064837;28;20162;-72
2023/08/02 07:03:54;;;;;;;7.88;5.80;;;;;;;25.75;79.22;92611.03;5064177;28;20056;-73
2023/08/02 07:06:22;;;;;;;6.68;5.50;;;;;;;25.85;78.56;92620.41;5062938;28;20094;-73
2023/08/02 07:08:49;;;;;;;9.93;6.47;;;;;;;26.03;78.65;92620.28;5065139;28;20094;-72
2023/08/02 07:11:16;;;;;;;9.65;6.10;;;;;;;26.24;77.66;92615.03;5066188;28;20045;-73
2023/08/02 07:13:44;;;;;;;9.65;5.63;;;;;;;26.56;77.15;92614.59;5062420;28;20053;-74
2023/08/02 07:16:11;;;;;;;6.80;5.60;;;;;;;26.95;75.93;92617.03;5061330;28;20040;-74
2023/08/02 07:18:38;;;;;;;13.07;5.72;;;;;;;27.28;73.37;92618.81;5061316;28;20052;-74
2023/08/02 07:21:07;;;;;;;9.23;5.63;;;;;;;27.58;72.38;92615.16;5062022;28;20056;-74
2023/08/02 07:23:34;;;;;;;8.02;5.60;;;;;;;27.94;70.09;92621.50;5062516;28;20064;-74
2023/08/02 07:26:01;;;;;;;10.18;5.10;;;;;;;28.26;66.34;92620.88;5062349;28;20037;-76
2023/08/02 07:28:28;;;;;;;9.02;5.22;;;;;;;28.52;66.44;92619.69;5062776;28;20917;-75
2023/08/02 07:31:05;;;;;;;10.18;5.07;;;;;;;28.64;64.93;92627.53;5065019;28;20048;-74
2023/08/02 07:33:32;;;;;;;10.98;5.25;;;;;;;28.83;63.68;92628.75;5063225;28;20453;-74
2023/08/02 07:35:59;;;;;;;7.05;5.53;;;;;;;29.04;62.79;92630.44;5064758;28;20052;-74
2023/08/02 07:38:27;;;;;;;6.32;4.60;;;;;;;29.34;59.69;92628.13;5065092;28;20133;-74
2023/08/02 07:40:54;;;;;;;8.85;4.88;;;;;;;29.55;60.56;92634.28;5066297;28;20848;-74
2023/08/02 07:43:20;;;;;;;6.70;4.47;;;;;;;29.77;58.84;92605.63;5063638;28;20094;-74
2023/08/02 07:45:47;;;;;;;6.50;4.50;;;;;;;30.18;57.07;92632.63;5064292;28;20539;-75
2023/08/02 07:48:14;;;;;;;9.23;4.68;;;;;;;30.42;56.19;92638.75;5063939;28;20048;-75
2023/08/02 07:50:41;;;;;;;7.95;4.40;;;;;;;30.54;54.39;92641.25;5063137;28;20056;-75
2023/08/02 07:53:08;;;;;;;5.75;3.80;;;;;;;30.60;49.06;92635.66;5064766;28;20040;-75
2023/08/02 07:55:36;;;;;;;5.30;3.42;;;;;;;30.78;48.83;92647.38;5062373;28;20460;-74
2023/08/02 07:58:02;;;;;;;4.63;3.60;;;;;;;30.18;46.37;92647.72;5064226;28;20571;-74
2023/08/02 08:00:29;;;;;;;6.95;3.00;;;;;;;29.92;46.76;92643.75;5065504;28;20044;-74
2023/08/02 08:02:56;;;;;;;12.30;4.13;;;;;;;30.26;49.84;92636.16;5061444;28;20052;-74
2023/08/02 08:05:25;;;;;;;5.68;3.50;;;;;;;29.80;45.38;92644.66;5066501;28;20461;-74
2023/08/02 08:07:52;;;;;;;6.57;3.15;;;;;;;30.00;47.66;92645.44;5065737;28;20040;-74
2023/08/02 08:10:18;;;;;;;5.75;3.75;;;;;;;29.69;43.86;92650.47;5064302;28;20048;-73
2023/08/02 08:12:46;;;;;;;6.18;3.45;;;;;;;30.24;43.65;92654.28;5064888;28;20071;-74
2023/08/02 08:15:13;;;;;;;3.75;2.88;;;;;;;30.23;43.92;92650.84;5065296;28;20145;-73
2023/08/02 08:17:40;;;;;;;5.05;2.63;;;;;;;29.56;43.65;92633.16;5060985;28;20125;-73
2023/08/02 08:20:07;;;;;;;4.50;2.58;;;;;;;29.98;44.39;92651.09;5061460;28;20044;-72
2023/08/02 08:22:34;;;;;;;4.05;2.72;;;;;;;29.77;45.25;92650.63;5059976;28;20518;-73
2023/08/02 08:25:01;;;;;;;5.25;3.60;;;;;;;29.41;47.00;92650.56;5061630;28;20052;-72
2023/08/02 08:27:28;;;;;;;5.03;3.13;;;;;;;29.57;46.35;92648.69;5063022;28;20117;-72
2023/08/02 08:29:56;;;;;;;5.75;3.40;;;;;;;30.09;45.69;92648.69;5059512;28;20456;-73
2023/08/02 08:32:26;;;;;;;6.35;3.30;;;;;;;30.58;41.63;92654.56;5061882;28;20396;-72
2023/08/02 08:34:54;;;;;;;5.57;3.22;;;;;;;30.19;42.27;92644.75;5061106;28;20049;-73
2023/08/02 08:37:20;;;;;;;6.63;3.33;;;;;;;29.71;44.39;92634.25;5060086;28;20685;-73
2023/08/02 08:39:47;;;;;;;9.25;3.10;;;;;;;30.05;44.74;92639.88;5060376;28;20620;-73
2023/08/02 08:42:14;;;;;;;5.80;3.28;;;;;;;30.42;44.64;92638.75;5060375;28;20056;-72
2023/08/02 08:44:40;;;;;;;6.13;3.08;;;;;;;30.91;42.79;92639.28;5058850;28;20121;-73
2023/08/02 08:47:09;;;;;;;4.65;3.45;;;;;;;31.42;41.90;92640.09;5059615;28;20106;-73
2023/08/02 08:49:35;;;;;;;5.50;3.17;;;;;;;31.36;42.17;92641.50;5059741;28;20924;-72
2023/08/02 08:52:05;;;;;;;6.75;4.03;;;;;;;30.24;44.86;92641.03;5062078;28;20098;-73
2023/08/02 08:54:33;;;;;;;6.50;3.67;;;;;;;30.83;43.76;92645.56;5063580;28;20052;-72
2023/08/02 08:57:01;;;;;;;5.15;3.45;;;;;;;30.52;43.14;92640.81;5062321;28;20048;-73
2023/08/02 08:59:29;;;;;;;12.18;3.65;;;;;;;31.06;43.63;92645.56;5066457;28;20040;-74
2023/08/02 09:01:58;;;;;;;6.03;3.65;;;;;;;31.33;41.32;92637.69;5066557;28;20087;-73
2023/08/02 09:04:27;;;;;;;5.30;3.30;;;;;;;31.05;42.52;92647.44;5065998;28;20045;-74
2023/08/02 09:06:53;;;;;;;7.80;3.85;;;;;;;29.99;43.97;92641.28;5067753;28;20048;-74
2023/08/02 09:09:20;;;;;;;6.45;3.33;;;;;;;30.33;44.04;92633.66;5065611;28;20044;-74
2023/08/02 09:11:47;;;;;;;7.22;3.65;;;;;;;30.25;44.21;92606.25;5065291;28;20098;-74
2023/08/02 09:14:16;;;;;;;6.72;4.60;;;;;;;30.18;44.51;92635.25;5066595;28;20045;-74
2023/08/02 09:17:04;;;;;;;4.93;3.38;;;;;;;30.86;44.10;92632.34;5066068;28;20044;-73
2023/08/02 09:19:33;;;;;;;6.80;3.70;;;;;;;30.73;43.84;92629.09;5061605;28;20583;-74
2023/08/02 09:22:11;;;;;;;6.13;3.40;;;;;;;31.51;43.80;92632.63;5065101;28;20542;-74
2023/08/02 09:24:39;;;;;;;7.80;3.22;;;;;;;32.08;41.61;92628.50;5064418;28;20048;-74
2023/08/02 09:27:08;;;;;;;4.88;2.63;;;;;;;31.83;41.49;92628.91;5061859;28;20044;-74
2023/08/02 09:29:46;;;;;;;6.47;3.90;;;;;;;31.44;40.69;92624.59;5063979;28;20051;-74
2023/08/02 09:32:13;;;;;;;7.22;2.80;;;;;;;31.76;41.80;92631.47;5064560;28;20048;-74
2023/08/02 09:34:45;;;;;;;6.35;3.92;;;;;;;31.93;41.57;92620.34;5063738;28;20608;-74
2023/08/02 09:37:13;;;;;;;5.75;3.55;;;;;;;32.40;42.73;92630.78;5064687;28;20110;-74
2023/08/02 09:39:48;;;;;;;4.65;3.42;;;;;;;32.83;38.54;92624.41;5067613;28;20056;-74
2023/08/02 09:42:15;;;;;;;7.30;3.70;;;;;;;33.32;40.33;92623.31;5065358;28;20056;-74
2023/08/02 09:44:42;;;;;;;4.95;3.08;;;;;;;33.53;37.04;92629.19;5062939;28;20090;-74
2023/08/02 09:47:10;;;;;;;4.88;3.50;;;;;;;33.71;37.27;92624.75;5065860;28;20048;-74
2023/08/02 09:49:37;;;;;;;10.05;3.35;;;;;;;34.16;37.47;92626.53;5065001;28;20083;-75
2023/08/02 09:52:06;;;;;;;6.95;3.53;;;;;;;34.51;36.56;92621.69;5064677;28;20264;-74
2023/08/02 09:54:32;;;;;;;5.57;3.17;;;;;;;34.64;36.95;92622.91;5067389;28;20101;-74
2023/08/02 09:57:01;;;;;;;5.75;3.30;;;;;;;34.36;35.85;92624.34;5066616;28;20055;-74
2023/08/02 09:59:30;;;;;;;5.00;3.28;;;;;;;33.21;36.97;92616.41;5067014;28;20101;-74
2023/08/02 10:01:57;;;;;;;4.38;3.15;;;;;;;32.05;38.76;92622.03;5064179;28;20056;-74
2023/08/02 10:04:25;;;;;;;5.22;3.17;;;;;;;31.13;41.14;92621.81;5063260;28;20049;-74
2023/08/02 10:06:57;;;;;;;6.18;3.28;;;;;;;31.52;40.87;92614.84;5060160;28;20044;-74
2023/08/02 10:09:29;;;;;;;5.90;3.40;;;;;;;31.39;39.92;92611.63;5062938;28;20052;-74
2023/08/02 10:12:02;;;;;;;4.43;3.20;;;;;;;31.81;39.70;92608.03;5062363;28;20105;-74
2023/08/02 10:14:31;;;;;;;4.03;2.60;;;;;;;31.26;40.44;92613.66;5062207;28;20045;-74
2023/08/02 10:17:01;;;;;;;4.65;2.97;;;;;;;31.24;40.30;92605.31;5062090;28;20410;-74
2023/08/02 10:19:29;;;;;;;10.57;3.00;;;;;;;31.29;40.93;92600.47;5064440;28;20139;-75
2023/08/02 10:21:58;;;;;;;7.13;3.65;;;;;;;31.74;38.11;92607.94;5062595;28;20776;-74
2023/08/02 10:24:28;;;;;;;5.97;2.63;;;;;;;32.25;38.32;92603.25;5063277;28;20429;-75
2023/08/02 10:26:56;;;;;;;6.50;2.45;;;;;;;32.55;39.16;92593.75;5062405;28;20086;-74
2023/08/02 10:29:26;;;;;;;3.22;1.70;;;;;;;33.14;34.89;92598.47;5062262;28;20106;-73
2023/08/02 10:31:53;;;;;;;3.40;1.80;;;;;;;33.64;36.87;92597.31;5061686;28;20044;-73
2023/08/02 10:34:49;;;;;;;5.65;2.92;;;;;;;34.20;34.48;92597.97;5063244;28;20055;-73
2023/08/02 10:37:16;;;;;;;3.75;2.30;;;;;;;34.57;34.45;92588.19;5059228;28;20044;-73
2023/08/02 10:39:53;;;;;;;3.88;2.15;;;;;;;34.93;34.43;92582.16;5064169;28;20101;-73
2023/08/02 10:42:21;;;;;;;3.10;2.08;;;;;;;35.18;32.99;92590.19;5060399;28;20049;-73
2023/08/02 10:45:13;;;;;;;3.25;1.90;;;;;;;35.26;33.33;92588.28;5063915;28;20040;-73
2023/08/02 10:47:40;;;;;;;4.93;1.80;;;;;;;35.45;33.53;92592.47;5055681;28;20056;-73
2023/08/02 10:50:07;;;;;;;5.25;2.38;;;;;;;35.63;32.84;92593.63;5063752;28;20049;-74
2023/08/02 10:52:36;;;;;;;4.65;2.28;;;;;;;35.67;32.77;92599.72;5063113;28;20048;-74
2023/08/02 10:55:12;;;;;;;3.17;2.13;;;;;;;35.67;32.33;92581.78;5063400;28;20041;-73
2023/08/02 10:57:40;;;;;;;6.47;2.00;;;;;;;36.02;32.52;92579.38;5062333;28;20053;-73
2023/08/02 11:00:18;;;;;;;4.85;2.00;;;;;;;35.94;32.94;92575.22;5062400;28;20037;-73
2023/08/02 11:02:50;;;;;;;5.25;2.13;;;;;;;36.27;32.42;92581.22;5061945;28;20105;-73
2023/08/02 11:05:36;;;;;;;3.20;1.98;;;;;;;36.50;31.37;92578.03;5060635;28;20052;-73
2023/08/02 11:08:03;;;;;;;3.58;2.22;;;;;;;36.50;30.68;92586.06;5060390;28;20051;-73
2023/08/02 11:10:31;;;;;;;4.15;2.08;;;;;;;36.54;29.91;92590.63;5061590;28;20129;-72
2023/08/02 11:12:58;;;;;;;3.25;2.17;;;;;;;36.79;30.55;92582.50;5061831;28;20048;-73
2023/08/02 11:15:25;;;;;;;4.55;2.38;;;;;;;36.21;30.04;92583.53;5060036;28;20543;-72
2023/08/02 11:17:56;;;;;;;3.65;1.80;;;;;;;36.14;30.49;92588.16;5061604;28;20040;-72
2023/08/02 11:20:26;;;;;;;5.65;1.73;;;;;;;35.23;31.25;92590.97;5059636;28;20569;-73
2023/08/02 11:22:53;;;;;;;6.97;1.88;;;;;;;35.53;30.07;92582.53;5061721;28;20468;-73
2023/08/02 11:25:21;;;;;;;3.78;2.25;;;;;;;35.72;31.41;92577.94;5063379;28;20044;-73
2023/08/02 11:28:01;;;;;;;3.03;1.83;;;;;;;35.47;31.43;92521.88;5061660;28;20052;-73
2023/08/02 11:30:28;;;;;;;4.57;2.20;;;;;;;35.56;30.58;92567.66;5061712;28;20049;-73
2023/08/02 11:32:55;;;;;;;3.38;1.90;;;;;;;35.07;31.41;92564.66;5064864;28;20101;-73
2023/08/02 11:35:22;;;;;;;3.25;1.80;;;;;;;35.15;31.29;92561.63;5063886;28;20098;-73